createdAt,value
2023-05-21T00:02:24.455Z,18.30
2023-05-21T00:04:54.417Z,18.30
2023-05-21T00:07:23.693Z,18.30
2023-05-21T00:09:53.354Z,18.30
2023-05-21T00:12:21.710Z,18.30
2023-05-21T00:14:49.905Z,18.20
2023-05-21T00:17:18.370Z,18.20
2023-05-21T00:19:46.790Z,18.30
2023-05-21T00:22:17.181Z,18.30
2023-05-21T00:24:46.361Z,18.30
2023-05-21T00:27:14.686Z,18.30
2023-05-21T00:29:44.597Z,18.30
2023-05-21T00:32:13.033Z,18.30
2023-05-21T00:34:41.693Z,18.30
2023-05-21T00:37:10.267Z,18.30
2023-05-21T00:39:39.748Z,18.30
2023-05-21T01:28:35.919Z,18.30
2023-05-21T01:31:13.477Z,18.30
2023-05-21T01:33:47.793Z,18.30
2023-05-21T02:22:33.637Z,18.20
2023-05-21T02:25:05.230Z,18.20
2023-05-21T02:27:35.496Z,18.20
2023-05-21T02:30:04.839Z,18.20
2023-05-21T02:32:39.026Z,18.20
2023-05-21T02:35:07.902Z,18.20
2023-05-21T02:37:38.128Z,18.20
2023-05-21T02:40:10.588Z,18.20
2023-05-21T02:42:40.521Z,18.20
2023-05-21T02:45:12.697Z,18.20
2023-05-21T02:47:43.819Z,18.20
2023-05-21T02:50:14.602Z,18.20
2023-05-21T02:52:50.419Z,18.20
2023-05-21T02:55:19.004Z,18.20
2023-05-21T02:57:47.428Z,18.20
2023-05-21T03:00:16.831Z,18.20
2023-05-21T03:02:46.180Z,18.20
2023-05-21T03:05:14.994Z,18.20
2023-05-21T03:07:43.986Z,18.20
2023-05-21T03:10:14.070Z,18.20
2023-05-21T03:12:42.574Z,18.20
2023-05-21T03:15:11.926Z,18.10
2023-05-21T03:17:40.350Z,18.10
2023-05-21T03:20:16.629Z,18.10
2023-05-21T04:18:51.833Z,17.90
2023-05-21T04:21:22.593Z,18.00
2023-05-21T04:23:51.059Z,18.00
2023-05-21T04:26:28.461Z,18.00
2023-05-21T04:54:50.340Z,18.20
2023-05-21T04:57:18.943Z,18.20
2023-05-21T04:59:48.159Z,18.20
2023-05-21T05:02:16.949Z,18.20
2023-05-21T05:04:45.362Z,18.30
2023-05-21T05:07:15.618Z,18.30
2023-05-21T05:09:44.641Z,18.30
2023-05-21T05:12:14.558Z,18.30
2023-05-21T05:14:43.052Z,18.40
2023-05-21T05:17:15.141Z,18.40
2023-05-21T05:19:44.911Z,18.40
2023-05-21T05:22:13.694Z,18.50
2023-05-21T05:24:43.513Z,18.50
2023-05-21T05:27:11.902Z,18.50
2023-05-21T05:29:41.696Z,18.60
2023-05-21T05:32:10.100Z,18.60
2023-05-21T05:34:39.187Z,18.70
2023-05-21T05:37:07.662Z,18.70
2023-05-21T05:39:36.229Z,18.80
2023-05-21T05:42:05.173Z,18.90
2023-05-21T05:44:33.843Z,19.00
2023-05-21T05:47:09.516Z,19.20
2023-05-21T05:49:39.699Z,19.30
2023-05-21T05:52:08.326Z,19.50
2023-05-21T05:54:36.626Z,19.60
2023-05-21T05:57:05.337Z,19.60
2023-05-21T05:59:34.299Z,19.70
2023-05-21T06:02:05.270Z,19.80
2023-05-21T06:04:33.654Z,19.90
2023-05-21T06:07:02.328Z,20.00
2023-05-21T06:09:30.828Z,20.10
2023-05-21T06:11:59.348Z,20.20
2023-05-21T06:14:27.728Z,20.30
2023-05-21T06:16:56.179Z,20.40
2023-05-21T06:19:26.607Z,20.40
2023-05-21T06:21:55.096Z,20.50
2023-05-21T06:24:23.541Z,20.60
2023-05-21T06:26:52.157Z,20.70
2023-05-21T06:29:20.886Z,20.70
2023-05-21T06:31:49.422Z,20.70
2023-05-21T06:34:17.961Z,20.80
2023-05-21T06:36:48.652Z,20.90
2023-05-21T06:39:17.517Z,21.00
2023-05-21T06:41:46.091Z,21.10
2023-05-21T06:44:40.706Z,21.20
2023-05-21T06:47:23.928Z,21.40
2023-05-21T06:49:52.724Z,21.50
2023-05-21T06:52:22.622Z,21.60
2023-05-21T06:54:51.016Z,21.60
2023-05-21T06:57:20.985Z,21.80
2023-05-21T06:59:49.451Z,21.80
2023-05-21T07:02:17.788Z,21.90
2023-05-21T07:04:46.552Z,21.90
2023-05-21T07:07:14.730Z,21.90
2023-05-21T07:09:44.658Z,21.90
2023-05-21T07:12:13.171Z,21.90
2023-05-21T07:14:41.751Z,21.90
2023-05-21T07:17:10.398Z,22.00
2023-05-21T07:19:38.668Z,22.00
2023-05-21T07:22:07.658Z,22.00
2023-05-21T07:24:36.159Z,22.00
2023-05-21T07:27:17.751Z,22.10
2023-05-21T07:29:54.380Z,22.20
2023-05-21T07:32:23.178Z,22.30
2023-05-21T07:34:54.226Z,22.30
2023-05-21T07:37:28.248Z,22.40
2023-05-21T07:39:59.142Z,22.60
2023-05-21T07:42:29.278Z,22.70
2023-05-21T07:44:58.408Z,22.60
2023-05-21T07:47:28.502Z,22.50
2023-05-21T07:49:59.145Z,22.50
2023-05-21T07:52:28.668Z,22.50
2023-05-21T07:54:57.320Z,22.60
2023-05-21T07:57:28.921Z,22.70
2023-05-21T08:00:04.311Z,22.70
2023-05-21T08:02:43.345Z,22.80
2023-05-21T08:05:14.402Z,22.80
2023-05-21T08:07:43.216Z,22.70
2023-05-21T08:10:11.885Z,22.70
2023-05-21T08:12:43.352Z,22.60
2023-05-21T08:15:12.269Z,22.60
2023-05-21T08:17:45.270Z,22.50
2023-05-21T08:20:15.542Z,22.40
2023-05-21T08:22:46.343Z,22.40
2023-05-21T08:25:15.031Z,22.60
2023-05-21T08:27:44.882Z,22.70
2023-05-21T08:30:13.910Z,22.90
2023-05-21T08:32:42.397Z,23.00
2023-05-21T08:35:12.699Z,22.90
2023-05-21T08:38:10.546Z,22.90
2023-05-21T08:40:55.777Z,23.00
2023-05-21T08:43:28.975Z,23.10
2023-05-21T08:46:01.102Z,23.20
2023-05-21T08:48:33.503Z,23.40
2023-05-21T08:51:02.184Z,23.30
2023-05-21T08:53:38.001Z,23.30
2023-05-21T08:56:10.044Z,23.40
2023-05-21T08:58:46.989Z,23.30
2023-05-21T09:01:19.875Z,23.50
2023-05-21T09:04:05.075Z,23.70
2023-05-21T09:06:38.181Z,23.80
2023-05-21T09:09:15.052Z,23.80
2023-05-21T09:11:48.462Z,23.80
2023-05-21T09:14:19.129Z,23.90
2023-05-21T09:17:16.690Z,24.00
2023-05-21T09:20:17.962Z,23.90
2023-05-21T09:22:56.222Z,24.10
2023-05-21T09:25:28.603Z,24.30
2023-05-21T09:28:00.995Z,24.40
2023-05-21T09:30:32.601Z,24.60
2023-05-21T09:33:04.457Z,24.60
2023-05-21T09:35:36.269Z,24.40
2023-05-21T09:38:10.163Z,24.10
2023-05-21T09:40:54.315Z,24.10
2023-05-21T09:43:25.674Z,24.10
2023-05-21T09:45:58.963Z,24.10
2023-05-21T09:48:35.961Z,23.80
2023-05-21T09:51:13.402Z,23.90
2023-05-21T09:53:55.105Z,23.90
2023-05-21T09:56:25.100Z,24.10
2023-05-21T09:58:55.161Z,23.90
2023-05-21T10:01:25.372Z,24.00
2023-05-21T10:03:59.203Z,24.10
2023-05-21T10:06:29.290Z,24.30
2023-05-21T10:08:59.802Z,24.70
2023-05-21T10:11:31.125Z,25.00
2023-05-21T10:14:05.680Z,25.20
2023-05-21T10:16:36.917Z,25.30
2023-05-21T10:19:06.420Z,25.40
2023-05-21T10:21:35.281Z,25.40
2023-05-21T10:24:04.683Z,25.50
2023-05-21T10:26:33.373Z,25.50
2023-05-21T10:29:02.782Z,25.70
2023-05-21T10:31:33.575Z,25.70
2023-05-21T10:34:06.625Z,25.70
2023-05-21T10:36:36.239Z,25.50
2023-05-21T10:39:04.750Z,25.60
2023-05-21T10:41:43.603Z,25.60
2023-05-21T10:44:20.800Z,25.50
2023-05-21T10:47:29.375Z,25.70
2023-05-21T10:50:15.625Z,25.70
2023-05-21T10:52:57.708Z,25.80
2023-05-21T10:55:42.421Z,25.80
2023-05-21T10:58:38.344Z,25.80
2023-05-21T11:01:07.481Z,25.80
2023-05-21T11:03:37.730Z,25.50
2023-05-21T11:06:09.053Z,25.40
2023-05-21T11:08:39.110Z,25.60
2023-05-21T11:11:07.834Z,25.80
2023-05-21T11:13:52.083Z,25.50
2023-05-21T11:16:25.960Z,25.70
2023-05-21T11:19:01.208Z,26.00
2023-05-21T11:21:35.619Z,26.00
2023-05-21T11:24:08.009Z,26.20
2023-05-21T11:27:05.231Z,26.40
2023-05-21T11:29:45.532Z,26.30
2023-05-21T11:32:15.868Z,26.20
2023-05-21T11:34:49.003Z,25.80
2023-05-21T11:37:30.774Z,25.70
2023-05-21T11:40:17.540Z,25.50
2023-05-21T11:42:50.540Z,25.40
2023-05-21T11:45:20.536Z,25.30
2023-05-21T11:47:49.615Z,25.20
2023-05-21T11:50:18.932Z,25.00
2023-05-21T11:52:50.275Z,24.90
2023-05-21T11:55:22.822Z,24.80
2023-05-21T11:57:54.835Z,24.80
2023-05-21T12:00:23.440Z,24.90
2023-05-21T12:02:53.030Z,25.00
2023-05-21T12:05:22.446Z,25.00
2023-05-21T12:07:52.205Z,25.10
2023-05-21T12:10:24.529Z,25.10
2023-05-21T12:12:56.970Z,25.10
2023-05-21T12:15:27.954Z,24.80
2023-05-21T12:17:57.248Z,24.60
2023-05-21T12:20:28.680Z,24.40
2023-05-21T12:22:59.935Z,24.30
2023-05-21T12:25:30.302Z,24.10
2023-05-21T12:27:59.164Z,23.90
2023-05-21T12:30:27.586Z,23.60
2023-05-21T12:32:59.861Z,23.30
2023-05-21T12:35:28.277Z,23.00
2023-05-21T12:37:57.058Z,22.80
2023-05-21T12:40:38.688Z,22.60
2023-05-21T12:43:08.420Z,22.60
2023-05-21T12:45:44.602Z,22.60
2023-05-21T12:48:14.160Z,22.50
2023-05-21T12:50:43.677Z,22.40
2023-05-21T12:53:12.598Z,22.40
2023-05-21T12:55:42.607Z,22.30
2023-05-21T12:58:14.923Z,22.50
2023-05-21T13:00:44.465Z,22.90
2023-05-21T13:03:12.891Z,23.30
2023-05-21T13:05:42.364Z,23.70
2023-05-21T13:08:11.744Z,24.10
2023-05-21T13:10:41.804Z,24.60
2023-05-21T13:13:10.642Z,25.20
2023-05-21T13:15:39.184Z,25.70
2023-05-21T13:18:07.747Z,26.20
2023-05-21T13:20:37.222Z,26.70
2023-05-21T13:23:07.695Z,27.00
2023-05-21T13:25:37.758Z,27.30
2023-05-21T13:28:10.780Z,27.50
2023-05-21T13:30:39.785Z,27.60
2023-05-21T13:33:08.390Z,27.80
2023-05-21T13:35:37.232Z,27.80
2023-05-21T13:38:05.693Z,27.20
2023-05-21T13:40:35.496Z,26.50
2023-05-21T13:43:07.467Z,26.10
2023-05-21T13:45:36.233Z,25.90
2023-05-21T13:48:05.114Z,25.80
2023-05-21T13:50:33.731Z,25.60
2023-05-21T13:53:02.244Z,25.60
2023-05-21T13:55:30.818Z,25.70
2023-05-21T13:57:59.365Z,25.80
2023-05-21T14:00:29.426Z,26.70
2023-05-21T14:02:58.391Z,26.70
2023-05-21T14:05:27.194Z,26.40
2023-05-21T14:07:55.946Z,26.80
2023-05-21T14:10:24.440Z,27.70
2023-05-21T14:12:53.353Z,28.40
2023-05-21T14:15:23.758Z,29.10
2023-05-21T14:17:54.349Z,29.40
2023-05-21T14:20:23.021Z,29.20
2023-05-21T14:22:51.443Z,29.50
2023-05-21T14:25:20.080Z,29.30
2023-05-21T14:27:48.537Z,29.40
2023-05-21T14:30:17.034Z,29.10
2023-05-21T14:32:45.516Z,28.90
2023-05-21T14:35:15.563Z,29.70
2023-05-21T14:37:44.214Z,30.50
2023-05-21T14:40:13.835Z,30.70
2023-05-21T14:42:42.292Z,30.90
2023-05-21T14:45:19.145Z,31.30
2023-05-21T14:47:49.249Z,31.50
2023-05-21T14:50:19.644Z,31.50
2023-05-21T14:52:48.270Z,31.70
2023-05-21T14:55:19.004Z,31.30
2023-05-21T14:57:47.554Z,29.80
2023-05-21T15:00:16.478Z,29.60
2023-05-21T15:02:45.216Z,29.50
2023-05-21T15:05:13.624Z,29.20
2023-05-21T15:07:43.821Z,29.30
2023-05-21T15:10:12.823Z,29.20
2023-05-21T15:12:41.990Z,29.70
2023-05-21T15:15:12.706Z,28.70
2023-05-21T15:17:41.446Z,27.60
2023-05-21T15:20:10.689Z,27.00
2023-05-21T15:22:39.405Z,26.30
2023-05-21T15:25:10.360Z,25.90
2023-05-21T15:27:38.890Z,25.50
2023-05-21T15:30:08.555Z,26.00
2023-05-21T15:32:37.726Z,27.50
2023-05-21T15:35:07.148Z,27.30
2023-05-21T15:37:35.783Z,27.30
2023-05-21T15:40:05.061Z,27.90
2023-05-21T15:42:35.335Z,28.00
2023-05-21T15:45:06.060Z,29.00
2023-05-21T15:47:34.751Z,29.20
2023-05-21T15:50:03.149Z,28.50
2023-05-21T15:52:31.951Z,27.60
2023-05-21T15:55:00.877Z,28.50
2023-05-21T15:57:29.569Z,28.90
2023-05-21T15:59:59.925Z,28.90
2023-05-21T16:02:28.443Z,30.10
2023-05-21T16:04:56.802Z,29.40
2023-05-21T16:07:25.590Z,29.90
2023-05-21T16:09:54.133Z,30.60
2023-05-21T16:12:22.649Z,30.90
2023-05-21T16:14:51.064Z,31.20
2023-05-21T16:17:21.301Z,30.40
2023-05-21T16:19:49.846Z,29.70
2023-05-21T16:22:21.026Z,29.80
2023-05-21T16:24:49.495Z,29.20
2023-05-21T16:27:18.137Z,29.40
2023-05-21T16:29:46.990Z,30.10
2023-05-21T16:32:16.463Z,29.00
2023-05-21T16:34:46.377Z,27.80
2023-05-21T16:37:15.063Z,27.30
2023-05-21T16:39:43.731Z,26.80
2023-05-21T16:42:12.055Z,26.50
2023-05-21T16:44:40.735Z,26.20
2023-05-21T16:47:09.138Z,25.90
2023-05-21T16:49:37.820Z,25.90
2023-05-21T16:52:08.214Z,25.60
2023-05-21T16:54:36.932Z,25.00
2023-05-21T16:57:05.219Z,24.20
2023-05-21T16:59:33.521Z,23.50
2023-05-21T17:02:01.544Z,23.20
2023-05-21T17:04:38.120Z,23.00
2023-05-21T17:07:07.964Z,22.90
2023-05-21T17:09:36.384Z,22.70
2023-05-21T17:12:04.929Z,22.60
2023-05-21T17:14:34.909Z,22.50
2023-05-21T17:17:04.067Z,22.40
2023-05-21T17:19:32.335Z,22.30
2023-05-21T17:22:02.979Z,22.20
2023-05-21T17:24:32.961Z,22.10
2023-05-21T17:27:02.223Z,22.10
2023-05-21T17:29:30.262Z,21.90
2023-05-21T17:31:58.742Z,21.70
2023-05-21T17:34:29.723Z,21.50
2023-05-21T17:36:58.981Z,21.40
2023-05-21T17:39:27.096Z,21.20
2023-05-21T17:41:57.340Z,21.10
2023-05-21T17:44:25.652Z,21.10
2023-05-21T17:46:53.649Z,21.50
2023-05-21T17:49:21.848Z,21.60
2023-05-21T17:51:50.328Z,21.50
2023-05-21T17:54:19.225Z,21.60
2023-05-21T17:56:47.070Z,21.90
2023-05-21T17:59:16.976Z,21.80
2023-05-21T18:01:45.088Z,21.70
2023-05-21T18:04:13.468Z,21.50
2023-05-21T18:06:41.680Z,21.50
2023-05-21T18:09:10.987Z,21.40
2023-05-21T18:11:39.227Z,21.30
2023-05-21T18:14:07.348Z,21.50
2023-05-21T18:16:37.209Z,21.10
2023-05-21T18:19:06.833Z,20.80
2023-05-21T18:21:35.684Z,20.80
2023-05-21T18:24:04.388Z,20.90
2023-05-21T18:26:32.567Z,20.80
2023-05-21T18:29:00.583Z,20.60
2023-05-21T18:31:28.817Z,20.60
2023-05-21T18:33:58.387Z,20.70
2023-05-21T18:36:27.022Z,20.70
2023-05-21T18:38:55.107Z,20.90
2023-05-21T18:41:23.167Z,20.90
2023-05-21T18:43:51.358Z,20.40
2023-05-21T18:46:19.715Z,20.10
2023-05-21T18:48:49.169Z,19.90
2023-05-21T18:51:18.784Z,19.90
2023-05-21T18:53:46.918Z,20.50
2023-05-21T18:56:15.392Z,20.70
2023-05-21T18:58:43.409Z,20.50
2023-05-21T19:01:11.997Z,20.50
2023-05-21T19:03:39.983Z,20.50
2023-05-21T19:06:09.160Z,20.60
2023-05-21T19:08:39.349Z,20.70
2023-05-21T19:11:07.562Z,20.10
2023-05-21T19:13:35.967Z,19.80
2023-05-21T19:16:04.310Z,19.70
2023-05-21T19:18:32.658Z,19.50
2023-05-21T19:21:00.746Z,19.30
2023-05-21T19:23:29.533Z,19.20
2023-05-21T19:26:03.300Z,19.20
2023-05-21T19:28:31.460Z,19.30
2023-05-21T19:30:59.542Z,19.60
2023-05-21T19:33:27.585Z,19.90
2023-05-21T19:35:55.891Z,19.70
2023-05-21T19:38:23.945Z,19.40
2023-05-21T19:40:52.091Z,19.10
2023-05-21T19:43:21.571Z,19.00
2023-05-21T19:45:49.902Z,19.10
2023-05-21T19:48:17.874Z,19.30
2023-05-21T19:50:46.230Z,19.20
2023-05-21T19:53:14.670Z,19.30
2023-05-21T19:55:42.666Z,19.40
2023-05-21T19:58:13.722Z,19.80
2023-05-21T20:00:46.862Z,20.00
2023-05-21T20:03:17.539Z,20.10
2023-05-21T20:05:45.922Z,20.20
2023-05-21T20:08:13.933Z,20.20
2023-05-21T20:10:42.443Z,20.10
2023-05-21T20:13:12.719Z,20.00
2023-05-21T20:15:42.596Z,20.10
2023-05-21T20:18:10.678Z,20.20
2023-05-21T20:20:39.877Z,20.10
2023-05-21T20:23:08.380Z,19.90
2023-05-21T20:25:36.620Z,20.00
2023-05-21T20:28:05.543Z,20.10
2023-05-21T20:30:34.737Z,20.20
2023-05-21T20:33:04.578Z,20.20
2023-05-21T20:35:32.637Z,20.30
2023-05-21T20:38:02.447Z,20.40
2023-05-21T20:40:30.910Z,20.30
2023-05-21T20:42:59.064Z,20.30
2023-05-21T20:45:29.864Z,20.10
2023-05-21T20:47:58.095Z,19.70
2023-05-21T20:50:28.985Z,19.80
2023-05-21T20:52:58.363Z,19.90
2023-05-21T20:55:26.769Z,19.50
2023-05-21T20:57:55.174Z,19.10
2023-05-21T21:00:25.156Z,19.10
2023-05-21T21:02:53.686Z,19.20
2023-05-21T21:05:22.380Z,18.60
2023-05-21T21:07:55.516Z,18.50
2023-05-21T21:10:24.461Z,18.80
2023-05-21T21:12:52.656Z,18.90
2023-05-21T21:15:21.309Z,19.00
2023-05-21T21:17:49.879Z,19.20
2023-05-21T21:20:19.005Z,19.30
2023-05-21T21:22:47.406Z,19.40
2023-05-21T21:25:17.396Z,19.40
2023-05-21T21:27:45.729Z,19.30
2023-05-21T21:30:14.270Z,19.20
2023-05-21T21:32:42.983Z,19.40
2023-05-21T21:35:11.476Z,19.40
2023-05-21T21:37:39.959Z,19.50
2023-05-21T21:40:09.658Z,19.20
2023-05-21T21:42:39.419Z,18.90
2023-05-21T21:45:09.112Z,18.90
2023-05-21T21:47:37.434Z,18.70
2023-05-21T21:50:06.663Z,18.40
2023-05-21T21:52:34.994Z,18.60
2023-05-21T21:55:03.391Z,18.80
2023-05-21T21:57:31.659Z,19.00
2023-05-21T22:00:01.319Z,18.90
2023-05-21T22:02:34.975Z,19.00
2023-05-21T22:05:03.553Z,19.00
2023-05-21T22:07:32.227Z,18.90
2023-05-21T22:10:00.692Z,18.40
2023-05-21T22:12:29.343Z,18.60
2023-05-21T22:14:58.054Z,18.10
2023-05-21T22:17:29.111Z,18.30
2023-05-21T22:19:57.561Z,18.20
2023-05-21T22:22:26.359Z,18.40
2023-05-21T22:24:55.303Z,18.40
2023-05-21T22:27:23.516Z,18.20
2023-05-21T22:29:51.754Z,18.00
2023-05-21T22:32:20.467Z,17.90
2023-05-21T22:34:50.345Z,18.10
2023-05-21T22:37:19.387Z,18.40
2023-05-21T22:39:47.870Z,18.50
2023-05-21T22:42:16.176Z,18.50
2023-05-21T22:44:44.582Z,18.40
2023-05-21T22:47:14.460Z,18.00
2023-05-21T22:49:43.224Z,17.80
2023-05-21T22:52:14.934Z,17.50
2023-05-21T22:54:43.324Z,17.30
2023-05-21T22:57:11.514Z,17.20
2023-05-21T22:59:39.884Z,17.50
2023-05-21T23:02:08.041Z,17.60
2023-05-21T23:04:43.911Z,17.80
2023-05-21T23:07:14.529Z,18.00
2023-05-21T23:09:42.650Z,18.20
2023-05-21T23:12:11.292Z,18.20
2023-05-21T23:14:39.466Z,18.10
2023-05-21T23:17:07.709Z,18.20
2023-05-21T23:20:07.700Z,18.30
2023-05-21T23:22:37.887Z,18.20
2023-05-21T23:25:07.349Z,17.90
2023-05-21T23:27:35.668Z,17.60
2023-05-21T23:30:03.861Z,17.60
2023-05-21T23:32:32.498Z,17.70
2023-05-21T23:35:01.063Z,17.70
2023-05-21T23:37:29.584Z,17.60
2023-05-21T23:39:59.472Z,17.60
2023-05-21T23:42:27.919Z,17.70
2023-05-21T23:44:56.136Z,17.70
2023-05-21T23:47:24.570Z,17.60
2023-05-21T23:49:53.114Z,17.80
2023-05-21T23:52:21.522Z,17.80
2023-05-21T23:54:49.869Z,17.80
2023-05-21T23:57:19.744Z,17.80
2023-05-21T23:59:47.919Z,17.90
